sensor_id;sensor_type;location;lat;lon;timestamp;P1;durP1;ratioP1;P2;durP2;ratioP2
20729;SDS011;10526;50.850;12.928;2024-02-23T00:01:00;0.50;;;0.50;;
20729;SDS011;10526;50.850;12.928;2024-02-23T00:05:22;1.02;;;0.82;;
20729;SDS011;10526;50.850;12.928;2024-02-23T00:09:45;0.98;;;0.88;;
20729;SDS011;10526;50.850;12.928;2024-02-23T00:14:07;1.20;;;1.00;;
20729;SDS011;10526;50.850;12.928;2024-02-23T00:18:29;2.83;;;0.77;;
20729;SDS011;10526;50.850;12.928;2024-02-23T00:22:52;0.95;;;0.70;;
20729;SDS011;10526;50.850;12.928;2024-02-23T00:27:14;1.67;;;0.73;;
20729;SDS011;10526;50.850;12.928;2024-02-23T00:31:40;1.75;;;0.73;;
20729;SDS011;10526;50.850;12.928;2024-02-23T00:36:02;1.15;;;0.88;;
20729;SDS011;10526;50.850;12.928;2024-02-23T00:40:25;0.95;;;0.80;;
20729;SDS011;10526;50.850;12.928;2024-02-23T00:44:47;0.85;;;0.85;;
20729;SDS011;10526;50.850;12.928;2024-02-23T00:49:09;3.38;;;0.82;;
20729;SDS011;10526;50.850;12.928;2024-02-23T00:53:31;1.60;;;1.35;;
20729;SDS011;10526;50.850;12.928;2024-02-23T00:57:53;1.42;;;0.70;;
20729;SDS011;10526;50.850;12.928;2024-02-23T01:02:15;0.95;;;0.60;;
20729;SDS011;10526;50.850;12.928;2024-02-23T01:06:37;2.13;;;0.90;;
20729;SDS011;10526;50.850;12.928;2024-02-23T01:10:59;0.70;;;0.70;;
20729;SDS011;10526;50.850;12.928;2024-02-23T01:15:21;2.45;;;0.50;;
20729;SDS011;10526;50.850;12.928;2024-02-23T01:19:43;2.08;;;0.73;;
20729;SDS011;10526;50.850;12.928;2024-02-23T01:24:05;1.80;;;0.80;;
20729;SDS011;10526;50.850;12.928;2024-02-23T01:28:27;0.70;;;0.70;;
20729;SDS011;10526;50.850;12.928;2024-02-23T01:32:49;2.70;;;0.70;;
20729;SDS011;10526;50.850;12.928;2024-02-23T01:37:12;1.52;;;0.73;;
20729;SDS011;10526;50.850;12.928;2024-02-23T01:41:33;0.77;;;0.60;;
20729;SDS011;10526;50.850;12.928;2024-02-23T01:45:55;1.40;;;0.80;;
20729;SDS011;10526;50.850;12.928;2024-02-23T01:50:17;0.73;;;0.70;;
20729;SDS011;10526;50.850;12.928;2024-02-23T01:54:40;1.17;;;0.80;;
20729;SDS011;10526;50.850;12.928;2024-02-23T01:59:02;1.85;;;0.98;;
20729;SDS011;10526;50.850;12.928;2024-02-23T02:03:25;1.80;;;1.13;;
20729;SDS011;10526;50.850;12.928;2024-02-23T02:07:47;1.33;;;0.75;;
20729;SDS011;10526;50.850;12.928;2024-02-23T02:12:15;4.15;;;1.52;;
20729;SDS011;10526;50.850;12.928;2024-02-23T02:16:47;3.15;;;0.80;;
20729;SDS011;10526;50.850;12.928;2024-02-23T02:21:09;1.75;;;0.80;;
20729;SDS011;10526;50.850;12.928;2024-02-23T02:25:30;1.23;;;0.82;;
20729;SDS011;10526;50.850;12.928;2024-02-23T02:29:52;1.00;;;0.70;;
20729;SDS011;10526;50.850;12.928;2024-02-23T02:34:14;1.45;;;0.60;;
20729;SDS011;10526;50.850;12.928;2024-02-23T02:38:37;1.65;;;0.90;;
20729;SDS011;10526;50.850;12.928;2024-02-23T02:42:59;2.92;;;0.90;;
20729;SDS011;10526;50.850;12.928;2024-02-23T02:47:21;1.00;;;0.85;;
20729;SDS011;10526;50.850;12.928;2024-02-23T02:51:44;1.50;;;0.60;;
20729;SDS011;10526;50.850;12.928;2024-02-23T02:56:06;0.40;;;0.40;;
20729;SDS011;10526;50.850;12.928;2024-02-23T03:00:29;0.95;;;0.80;;
20729;SDS011;10526;50.850;12.928;2024-02-23T03:04:52;0.60;;;0.60;;
20729;SDS011;10526;50.850;12.928;2024-02-23T03:09:15;0.50;;;0.50;;
20729;SDS011;10526;50.850;12.928;2024-02-23T03:13:37;2.13;;;0.85;;
20729;SDS011;10526;50.850;12.928;2024-02-23T03:17:59;1.02;;;0.60;;
20729;SDS011;10526;50.850;12.928;2024-02-23T03:22:23;1.65;;;0.73;;
20729;SDS011;10526;50.850;12.928;2024-02-23T03:26:44;1.30;;;0.77;;
20729;SDS011;10526;50.850;12.928;2024-02-23T03:31:06;0.93;;;0.82;;
20729;SDS011;10526;50.850;12.928;2024-02-23T03:35:28;1.75;;;0.68;;
20729;SDS011;10526;50.850;12.928;2024-02-23T03:39:50;0.85;;;0.60;;
20729;SDS011;10526;50.850;12.928;2024-02-23T03:44:12;1.60;;;0.90;;
20729;SDS011;10526;50.850;12.928;2024-02-23T03:48:34;5.85;;;1.98;;
20729;SDS011;10526;50.850;12.928;2024-02-23T03:52:57;0.90;;;0.80;;
20729;SDS011;10526;50.850;12.928;2024-02-23T03:57:19;1.35;;;0.82;;
20729;SDS011;10526;50.850;12.928;2024-02-23T04:01:41;0.73;;;0.70;;
20729;SDS011;10526;50.850;12.928;2024-02-23T04:06:03;1.00;;;0.70;;
20729;SDS011;10526;50.850;12.928;2024-02-23T04:10:25;2.65;;;0.90;;
20729;SDS011;10526;50.850;12.928;2024-02-23T04:14:47;0.95;;;0.95;;
20729;SDS011;10526;50.850;12.928;2024-02-23T04:19:09;1.55;;;0.77;;
20729;SDS011;10526;50.850;12.928;2024-02-23T04:23:33;17.30;;;5.55;;
20729;SDS011;10526;50.850;12.928;2024-02-23T04:27:55;2.47;;;1.15;;
20729;SDS011;10526;50.850;12.928;2024-02-23T04:32:17;1.15;;;0.60;;
20729;SDS011;10526;50.850;12.928;2024-02-23T04:36:39;1.27;;;0.73;;
20729;SDS011;10526;50.850;12.928;2024-02-23T04:41:04;1.00;;;0.80;;
20729;SDS011;10526;50.850;12.928;2024-02-23T04:45:27;3.85;;;1.10;;
20729;SDS011;10526;50.850;12.928;2024-02-23T04:49:49;3.45;;;0.90;;
20729;SDS011;10526;50.850;12.928;2024-02-23T04:54:11;2.45;;;1.00;;
20729;SDS011;10526;50.850;12.928;2024-02-23T04:58:33;3.63;;;1.00;;
20729;SDS011;10526;50.850;12.928;2024-02-23T05:02:55;0.90;;;0.70;;
20729;SDS011;10526;50.850;12.928;2024-02-23T05:07:17;1.25;;;0.85;;
20729;SDS011;10526;50.850;12.928;2024-02-23T05:11:39;2.72;;;1.40;;
20729;SDS011;10526;50.850;12.928;2024-02-23T05:16:01;0.98;;;0.88;;
20729;SDS011;10526;50.850;12.928;2024-02-23T05:20:24;2.88;;;0.93;;
20729;SDS011;10526;50.850;12.928;2024-02-23T05:24:46;4.57;;;0.90;;
20729;SDS011;10526;50.850;12.928;2024-02-23T05:29:08;2.10;;;0.90;;
20729;SDS011;10526;50.850;12.928;2024-02-23T05:33:30;2.58;;;1.08;;
20729;SDS011;10526;50.850;12.928;2024-02-23T05:37:52;4.28;;;1.35;;
20729;SDS011;10526;50.850;12.928;2024-02-23T05:42:14;4.72;;;1.20;;
20729;SDS011;10526;50.850;12.928;2024-02-23T05:46:36;4.72;;;1.30;;
20729;SDS011;10526;50.850;12.928;2024-02-23T05:50:58;2.22;;;1.20;;
20729;SDS011;10526;50.850;12.928;2024-02-23T05:55:20;4.90;;;1.17;;
20729;SDS011;10526;50.850;12.928;2024-02-23T05:59:42;7.72;;;1.20;;
20729;SDS011;10526;50.850;12.928;2024-02-23T06:04:03;0.73;;;0.70;;
20729;SDS011;10526;50.850;12.928;2024-02-23T06:08:26;4.65;;;0.90;;
20729;SDS011;10526;50.850;12.928;2024-02-23T06:12:48;3.70;;;0.98;;
20729;SDS011;10526;50.850;12.928;2024-02-23T06:17:13;1.73;;;0.77;;
20729;SDS011;10526;50.850;12.928;2024-02-23T06:21:35;5.57;;;1.00;;
20729;SDS011;10526;50.850;12.928;2024-02-23T06:25:58;4.18;;;1.05;;
20729;SDS011;10526;50.850;12.928;2024-02-23T06:30:20;6.05;;;0.88;;
20729;SDS011;10526;50.850;12.928;2024-02-23T06:34:42;5.07;;;1.30;;
20729;SDS011;10526;50.850;12.928;2024-02-23T06:39:04;3.58;;;1.40;;
20729;SDS011;10526;50.850;12.928;2024-02-23T06:43:26;2.85;;;0.80;;
20729;SDS011;10526;50.850;12.928;2024-02-23T06:47:48;3.22;;;1.05;;
20729;SDS011;10526;50.850;12.928;2024-02-23T06:52:10;1.92;;;0.95;;
20729;SDS011;10526;50.850;12.928;2024-02-23T06:56:32;1.70;;;1.00;;
20729;SDS011;10526;50.850;12.928;2024-02-23T07:00:55;4.25;;;0.98;;
20729;SDS011;10526;50.850;12.928;2024-02-23T07:05:17;4.00;;;1.40;;
20729;SDS011;10526;50.850;12.928;2024-02-23T07:09:39;2.03;;;1.13;;
20729;SDS011;10526;50.850;12.928;2024-02-23T07:14:01;2.25;;;1.10;;
20729;SDS011;10526;50.850;12.928;2024-02-23T07:18:23;4.30;;;1.15;;
20729;SDS011;10526;50.850;12.928;2024-02-23T07:22:45;5.20;;;1.30;;
20729;SDS011;10526;50.850;12.928;2024-02-23T07:27:08;3.10;;;1.45;;
20729;SDS011;10526;50.850;12.928;2024-02-23T07:31:30;3.03;;;0.90;;
20729;SDS011;10526;50.850;12.928;2024-02-23T07:35:52;2.70;;;0.90;;
20729;SDS011;10526;50.850;12.928;2024-02-23T07:40:14;4.15;;;1.00;;
20729;SDS011;10526;50.850;12.928;2024-02-23T07:44:41;2.28;;;1.35;;
20729;SDS011;10526;50.850;12.928;2024-02-23T07:49:04;2.08;;;0.93;;
20729;SDS011;10526;50.850;12.928;2024-02-23T07:53:27;4.45;;;1.40;;
20729;SDS011;10526;50.850;12.928;2024-02-23T07:57:49;4.18;;;1.33;;
20729;SDS011;10526;50.850;12.928;2024-02-23T08:02:11;1.23;;;0.82;;
20729;SDS011;10526;50.850;12.928;2024-02-23T08:06:33;3.95;;;1.15;;
20729;SDS011;10526;50.850;12.928;2024-02-23T08:10:55;1.58;;;1.05;;
20729;SDS011;10526;50.850;12.928;2024-02-23T08:15:18;1.90;;;1.15;;
20729;SDS011;10526;50.850;12.928;2024-02-23T08:19:39;4.88;;;1.23;;
20729;SDS011;10526;50.850;12.928;2024-02-23T08:24:01;5.72;;;1.35;;
20729;SDS011;10526;50.850;12.928;2024-02-23T08:28:24;2.88;;;1.15;;
20729;SDS011;10526;50.850;12.928;2024-02-23T08:32:46;4.60;;;0.82;;
20729;SDS011;10526;50.850;12.928;2024-02-23T08:37:08;5.75;;;1.17;;
20729;SDS011;10526;50.850;12.928;2024-02-23T08:41:30;2.00;;;0.70;;
20729;SDS011;10526;50.850;12.928;2024-02-23T08:45:52;2.42;;;1.20;;
20729;SDS011;10526;50.850;12.928;2024-02-23T08:50:14;4.03;;;1.17;;
20729;SDS011;10526;50.850;12.928;2024-02-23T08:54:36;3.42;;;1.13;;
20729;SDS011;10526;50.850;12.928;2024-02-23T08:59:00;6.05;;;1.25;;
20729;SDS011;10526;50.850;12.928;2024-02-23T09:03:22;1.35;;;0.88;;
20729;SDS011;10526;50.850;12.928;2024-02-23T09:07:44;1.95;;;0.73;;
20729;SDS011;10526;50.850;12.928;2024-02-23T09:12:06;2.67;;;0.82;;
20729;SDS011;10526;50.850;12.928;2024-02-23T09:16:32;2.90;;;1.02;;
20729;SDS011;10526;50.850;12.928;2024-02-23T09:20:54;2.55;;;1.10;;
20729;SDS011;10526;50.850;12.928;2024-02-23T09:25:16;1.58;;;1.00;;
20729;SDS011;10526;50.850;12.928;2024-02-23T09:29:40;5.80;;;1.42;;
20729;SDS011;10526;50.850;12.928;2024-02-23T09:34:05;4.68;;;1.10;;
20729;SDS011;10526;50.850;12.928;2024-02-23T09:38:27;2.72;;;0.95;;
20729;SDS011;10526;50.850;12.928;2024-02-23T09:42:51;5.82;;;1.17;;
20729;SDS011;10526;50.850;12.928;2024-02-23T09:47:18;3.20;;;0.82;;
20729;SDS011;10526;50.850;12.928;2024-02-23T09:51:40;2.95;;;1.02;;
20729;SDS011;10526;50.850;12.928;2024-02-23T09:56:02;2.15;;;1.05;;
20729;SDS011;10526;50.850;12.928;2024-02-23T10:00:26;5.53;;;1.15;;
20729;SDS011;10526;50.850;12.928;2024-02-23T10:04:49;3.08;;;1.10;;
20729;SDS011;10526;50.850;12.928;2024-02-23T10:09:15;2.80;;;0.82;;
20729;SDS011;10526;50.850;12.928;2024-02-23T10:13:37;5.18;;;1.13;;
20729;SDS011;10526;50.850;12.928;2024-02-23T10:17:59;4.03;;;1.30;;
20729;SDS011;10526;50.850;12.928;2024-02-23T10:22:21;5.05;;;1.02;;
20729;SDS011;10526;50.850;12.928;2024-02-23T10:26:47;1.83;;;1.00;;
20729;SDS011;10526;50.850;12.928;2024-02-23T10:31:09;3.08;;;0.98;;
20729;SDS011;10526;50.850;12.928;2024-02-23T10:35:34;2.20;;;0.80;;
20729;SDS011;10526;50.850;12.928;2024-02-23T10:39:59;2.45;;;0.98;;
20729;SDS011;10526;50.850;12.928;2024-02-23T10:44:22;3.08;;;0.90;;
20729;SDS011;10526;50.850;12.928;2024-02-23T10:48:45;3.03;;;1.30;;
20729;SDS011;10526;50.850;12.928;2024-02-23T10:53:09;3.30;;;1.05;;
20729;SDS011;10526;50.850;12.928;2024-02-23T10:57:32;1.95;;;0.90;;
20729;SDS011;10526;50.850;12.928;2024-02-23T11:01:57;4.65;;;0.95;;
20729;SDS011;10526;50.850;12.928;2024-02-23T11:06:26;4.28;;;1.10;;
20729;SDS011;10526;50.850;12.928;2024-02-23T11:10:50;3.10;;;0.65;;
20729;SDS011;10526;50.850;12.928;2024-02-23T11:15:25;4.43;;;1.30;;
20729;SDS011;10526;50.850;12.928;2024-02-23T11:19:49;5.25;;;0.75;;
20729;SDS011;10526;50.850;12.928;2024-02-23T11:24:15;5.05;;;1.13;;
20729;SDS011;10526;50.850;12.928;2024-02-23T11:28:48;2.50;;;1.02;;
20729;SDS011;10526;50.850;12.928;2024-02-23T11:33:15;2.10;;;0.85;;
20729;SDS011;10526;50.850;12.928;2024-02-23T11:37:54;4.00;;;0.85;;
20729;SDS011;10526;50.850;12.928;2024-02-23T11:42:24;2.38;;;0.77;;
20729;SDS011;10526;50.850;12.928;2024-02-23T11:46:49;5.00;;;1.20;;
20729;SDS011;10526;50.850;12.928;2024-02-23T11:51:11;4.18;;;1.17;;
20729;SDS011;10526;50.850;12.928;2024-02-23T11:55:36;2.85;;;0.90;;
20729;SDS011;10526;50.850;12.928;2024-02-23T12:00:00;3.78;;;1.13;;
20729;SDS011;10526;50.850;12.928;2024-02-23T12:04:26;2.42;;;0.80;;
20729;SDS011;10526;50.850;12.928;2024-02-23T12:08:50;5.45;;;1.33;;
20729;SDS011;10526;50.850;12.928;2024-02-23T12:13:12;3.22;;;1.38;;
20729;SDS011;10526;50.850;12.928;2024-02-23T12:17:37;2.67;;;0.90;;
20729;SDS011;10526;50.850;12.928;2024-02-23T12:22:09;5.90;;;1.30;;
20729;SDS011;10526;50.850;12.928;2024-02-23T12:26:34;3.08;;;1.20;;
20729;SDS011;10526;50.850;12.928;2024-02-23T12:31:00;4.78;;;0.82;;
20729;SDS011;10526;50.850;12.928;2024-02-23T12:35:23;5.05;;;1.33;;
20729;SDS011;10526;50.850;12.928;2024-02-23T12:39:45;2.35;;;0.93;;
20729;SDS011;10526;50.850;12.928;2024-02-23T12:44:07;3.30;;;1.25;;
20729;SDS011;10526;50.850;12.928;2024-02-23T12:48:30;5.97;;;1.30;;
20729;SDS011;10526;50.850;12.928;2024-02-23T12:52:52;3.45;;;0.70;;
20729;SDS011;10526;50.850;12.928;2024-02-23T12:57:14;6.28;;;1.20;;
20729;SDS011;10526;50.850;12.928;2024-02-23T13:01:37;5.25;;;1.63;;
20729;SDS011;10526;50.850;12.928;2024-02-23T13:06:05;4.18;;;1.40;;
20729;SDS011;10526;50.850;12.928;2024-02-23T13:10:27;3.90;;;1.25;;
20729;SDS011;10526;50.850;12.928;2024-02-23T13:14:50;3.58;;;1.30;;
20729;SDS011;10526;50.850;12.928;2024-02-23T13:19:13;2.13;;;1.10;;
20729;SDS011;10526;50.850;12.928;2024-02-23T13:23:35;2.65;;;1.02;;
20729;SDS011;10526;50.850;12.928;2024-02-23T13:27:57;3.35;;;1.35;;
20729;SDS011;10526;50.850;12.928;2024-02-23T13:32:19;3.80;;;0.90;;
20729;SDS011;10526;50.850;12.928;2024-02-23T13:36:42;4.75;;;1.20;;
20729;SDS011;10526;50.850;12.928;2024-02-23T13:41:04;2.70;;;1.13;;
20729;SDS011;10526;50.850;12.928;2024-02-23T13:45:27;3.75;;;1.20;;
20729;SDS011;10526;50.850;12.928;2024-02-23T13:49:49;2.30;;;0.98;;
20729;SDS011;10526;50.850;12.928;2024-02-23T13:54:11;3.63;;;1.23;;
20729;SDS011;10526;50.850;12.928;2024-02-23T13:58:33;4.45;;;1.30;;
20729;SDS011;10526;50.850;12.928;2024-02-23T14:02:55;5.10;;;1.55;;
20729;SDS011;10526;50.850;12.928;2024-02-23T14:07:17;1.48;;;0.80;;
20729;SDS011;10526;50.850;12.928;2024-02-23T14:11:39;2.47;;;1.20;;
20729;SDS011;10526;50.850;12.928;2024-02-23T14:16:02;4.22;;;1.48;;
20729;SDS011;10526;50.850;12.928;2024-02-23T14:20:25;4.15;;;1.50;;
20729;SDS011;10526;50.850;12.928;2024-02-23T14:24:46;4.88;;;1.50;;
20729;SDS011;10526;50.850;12.928;2024-02-23T14:29:08;3.47;;;1.10;;
20729;SDS011;10526;50.850;12.928;2024-02-23T14:33:31;5.15;;;1.00;;
20729;SDS011;10526;50.850;12.928;2024-02-23T14:37:54;4.68;;;1.20;;
20729;SDS011;10526;50.850;12.928;2024-02-23T14:42:16;3.65;;;1.52;;
20729;SDS011;10526;50.850;12.928;2024-02-23T14:46:38;4.32;;;1.40;;
20729;SDS011;10526;50.850;12.928;2024-02-23T14:51:03;7.07;;;1.25;;
20729;SDS011;10526;50.850;12.928;2024-02-23T14:55:26;7.47;;;2.05;;
20729;SDS011;10526;50.850;12.928;2024-02-23T14:59:48;4.45;;;1.63;;
20729;SDS011;10526;50.850;12.928;2024-02-23T15:04:11;3.40;;;1.15;;
20729;SDS011;10526;50.850;12.928;2024-02-23T15:08:35;2.97;;;1.17;;
20729;SDS011;10526;50.850;12.928;2024-02-23T15:12:57;4.20;;;1.50;;
20729;SDS011;10526;50.850;12.928;2024-02-23T15:17:19;4.13;;;1.40;;
20729;SDS011;10526;50.850;12.928;2024-02-23T15:21:41;6.13;;;1.48;;
20729;SDS011;10526;50.850;12.928;2024-02-23T15:26:03;2.40;;;0.98;;
20729;SDS011;10526;50.850;12.928;2024-02-23T15:30:32;3.42;;;1.27;;
20729;SDS011;10526;50.850;12.928;2024-02-23T15:34:55;5.28;;;1.38;;
20729;SDS011;10526;50.850;12.928;2024-02-23T15:39:18;4.13;;;1.55;;
20729;SDS011;10526;50.850;12.928;2024-02-23T15:43:40;6.22;;;1.50;;
20729;SDS011;10526;50.850;12.928;2024-02-23T15:48:02;5.75;;;1.55;;
20729;SDS011;10526;50.850;12.928;2024-02-23T15:52:25;4.88;;;1.60;;
20729;SDS011;10526;50.850;12.928;2024-02-23T15:56:48;3.28;;;1.40;;
20729;SDS011;10526;50.850;12.928;2024-02-23T16:01:10;5.47;;;1.65;;
20729;SDS011;10526;50.850;12.928;2024-02-23T16:05:32;4.65;;;1.67;;
20729;SDS011;10526;50.850;12.928;2024-02-23T16:09:54;3.88;;;1.48;;
20729;SDS011;10526;50.850;12.928;2024-02-23T16:14:17;3.67;;;1.10;;
20729;SDS011;10526;50.850;12.928;2024-02-23T16:18:40;6.22;;;1.30;;
20729;SDS011;10526;50.850;12.928;2024-02-23T16:23:02;4.32;;;1.50;;
20729;SDS011;10526;50.850;12.928;2024-02-23T16:27:34;4.53;;;1.35;;
20729;SDS011;10526;50.850;12.928;2024-02-23T16:31:56;4.43;;;1.02;;
20729;SDS011;10526;50.850;12.928;2024-02-23T16:36:19;4.88;;;1.48;;
20729;SDS011;10526;50.850;12.928;2024-02-23T16:40:41;3.00;;;1.33;;
20729;SDS011;10526;50.850;12.928;2024-02-23T16:45:03;11.73;;;1.30;;
20729;SDS011;10526;50.850;12.928;2024-02-23T16:49:26;5.18;;;1.52;;
20729;SDS011;10526;50.850;12.928;2024-02-23T16:53:49;5.25;;;1.75;;
20729;SDS011;10526;50.850;12.928;2024-02-23T16:58:11;5.00;;;1.40;;
20729;SDS011;10526;50.850;12.928;2024-02-23T17:02:33;3.17;;;1.40;;
20729;SDS011;10526;50.850;12.928;2024-02-23T17:06:55;12.98;;;2.03;;
20729;SDS011;10526;50.850;12.928;2024-02-23T17:11:19;6.30;;;1.75;;
20729;SDS011;10526;50.850;12.928;2024-02-23T17:15:41;4.60;;;1.77;;
20729;SDS011;10526;50.850;12.928;2024-02-23T17:20:03;10.07;;;2.20;;
20729;SDS011;10526;50.850;12.928;2024-02-23T17:24:26;6.28;;;1.58;;
20729;SDS011;10526;50.850;12.928;2024-02-23T17:28:48;6.80;;;2.10;;
20729;SDS011;10526;50.850;12.928;2024-02-23T17:33:12;5.38;;;1.92;;
20729;SDS011;10526;50.850;12.928;2024-02-23T17:37:35;11.55;;;2.30;;
20729;SDS011;10526;50.850;12.928;2024-02-23T17:41:57;5.45;;;2.10;;
20729;SDS011;10526;50.850;12.928;2024-02-23T17:46:20;5.68;;;1.88;;
20729;SDS011;10526;50.850;12.928;2024-02-23T17:50:42;7.30;;;2.15;;
20729;SDS011;10526;50.850;12.928;2024-02-23T17:55:04;6.15;;;2.00;;
20729;SDS011;10526;50.850;12.928;2024-02-23T17:59:27;6.00;;;2.40;;
20729;SDS011;10526;50.850;12.928;2024-02-23T18:03:49;4.80;;;1.92;;
20729;SDS011;10526;50.850;12.928;2024-02-23T18:08:11;8.30;;;2.42;;
20729;SDS011;10526;50.850;12.928;2024-02-23T18:12:33;10.15;;;3.13;;
20729;SDS011;10526;50.850;12.928;2024-02-23T18:16:55;4.50;;;2.10;;
20729;SDS011;10526;50.850;12.928;2024-02-23T18:21:18;6.47;;;2.22;;
20729;SDS011;10526;50.850;12.928;2024-02-23T18:25:39;10.27;;;2.97;;
20729;SDS011;10526;50.850;12.928;2024-02-23T18:30:02;10.25;;;2.92;;
20729;SDS011;10526;50.850;12.928;2024-02-23T18:34:25;9.18;;;2.67;;
20729;SDS011;10526;50.850;12.928;2024-02-23T18:38:47;8.48;;;2.53;;
20729;SDS011;10526;50.850;12.928;2024-02-23T18:43:09;8.60;;;2.60;;
20729;SDS011;10526;50.850;12.928;2024-02-23T18:47:30;8.82;;;2.53;;
20729;SDS011;10526;50.850;12.928;2024-02-23T18:51:52;9.90;;;2.55;;
20729;SDS011;10526;50.850;12.928;2024-02-23T18:56:14;9.85;;;3.08;;
20729;SDS011;10526;50.850;12.928;2024-02-23T19:00:36;7.57;;;2.55;;
20729;SDS011;10526;50.850;12.928;2024-02-23T19:04:58;8.25;;;2.65;;
20729;SDS011;10526;50.850;12.928;2024-02-23T19:09:21;8.70;;;2.83;;
20729;SDS011;10526;50.850;12.928;2024-02-23T19:13:43;8.93;;;3.20;;
20729;SDS011;10526;50.850;12.928;2024-02-23T19:18:06;7.38;;;2.67;;
20729;SDS011;10526;50.850;12.928;2024-02-23T19:22:28;8.68;;;3.10;;
20729;SDS011;10526;50.850;12.928;2024-02-23T19:26:50;10.45;;;3.25;;
20729;SDS011;10526;50.850;12.928;2024-02-23T19:31:11;8.35;;;3.60;;
20729;SDS011;10526;50.850;12.928;2024-02-23T19:35:34;11.82;;;3.92;;
20729;SDS011;10526;50.850;12.928;2024-02-23T19:39:56;13.93;;;4.00;;
20729;SDS011;10526;50.850;12.928;2024-02-23T19:44:18;12.50;;;4.53;;
20729;SDS011;10526;50.850;12.928;2024-02-23T19:48:40;16.90;;;4.53;;
20729;SDS011;10526;50.850;12.928;2024-02-23T19:53:02;14.77;;;4.30;;
20729;SDS011;10526;50.850;12.928;2024-02-23T19:57:24;12.77;;;4.50;;
20729;SDS011;10526;50.850;12.928;2024-02-23T20:01:48;12.85;;;4.18;;
20729;SDS011;10526;50.850;12.928;2024-02-23T20:06:10;11.93;;;4.07;;
20729;SDS011;10526;50.850;12.928;2024-02-23T20:10:34;14.98;;;3.90;;
20729;SDS011;10526;50.850;12.928;2024-02-23T20:14:56;11.23;;;4.07;;
20729;SDS011;10526;50.850;12.928;2024-02-23T20:19:19;11.73;;;3.83;;
20729;SDS011;10526;50.850;12.928;2024-02-23T20:23:42;11.30;;;3.45;;
20729;SDS011;10526;50.850;12.928;2024-02-23T20:28:04;11.75;;;2.90;;
20729;SDS011;10526;50.850;12.928;2024-02-23T20:32:26;10.45;;;3.28;;
20729;SDS011;10526;50.850;12.928;2024-02-23T20:36:50;9.65;;;3.53;;
20729;SDS011;10526;50.850;12.928;2024-02-23T20:41:12;10.52;;;3.50;;
20729;SDS011;10526;50.850;12.928;2024-02-23T20:45:34;13.50;;;3.63;;
20729;SDS011;10526;50.850;12.928;2024-02-23T20:49:57;8.98;;;3.20;;
20729;SDS011;10526;50.850;12.928;2024-02-23T20:54:19;11.38;;;4.38;;
20729;SDS011;10526;50.850;12.928;2024-02-23T20:58:41;15.32;;;3.63;;
20729;SDS011;10526;50.850;12.928;2024-02-23T21:03:03;14.18;;;3.55;;
20729;SDS011;10526;50.850;12.928;2024-02-23T21:07:25;7.40;;;2.83;;
20729;SDS011;10526;50.850;12.928;2024-02-23T21:11:47;8.13;;;2.95;;
20729;SDS011;10526;50.850;12.928;2024-02-23T21:16:09;10.48;;;3.67;;
20729;SDS011;10526;50.850;12.928;2024-02-23T21:20:31;9.35;;;3.35;;
20729;SDS011;10526;50.850;12.928;2024-02-23T21:24:53;9.32;;;3.40;;
20729;SDS011;10526;50.850;12.928;2024-02-23T21:29:15;11.73;;;3.72;;
20729;SDS011;10526;50.850;12.928;2024-02-23T21:33:37;12.38;;;3.80;;
20729;SDS011;10526;50.850;12.928;2024-02-23T21:37:59;10.07;;;3.65;;
20729;SDS011;10526;50.850;12.928;2024-02-23T21:42:21;8.73;;;3.13;;
20729;SDS011;10526;50.850;12.928;2024-02-23T21:46:43;7.82;;;2.85;;
20729;SDS011;10526;50.850;12.928;2024-02-23T21:51:06;8.77;;;3.25;;
20729;SDS011;10526;50.850;12.928;2024-02-23T21:55:33;7.80;;;2.70;;
20729;SDS011;10526;50.850;12.928;2024-02-23T21:59:55;8.75;;;3.40;;
20729;SDS011;10526;50.850;12.928;2024-02-23T22:04:18;12.88;;;3.10;;
20729;SDS011;10526;50.850;12.928;2024-02-23T22:08:40;9.00;;;3.00;;
20729;SDS011;10526;50.850;12.928;2024-02-23T22:13:03;8.43;;;2.75;;
20729;SDS011;10526;50.850;12.928;2024-02-23T22:17:25;7.38;;;2.78;;
20729;SDS011;10526;50.850;12.928;2024-02-23T22:21:48;14.65;;;3.20;;
20729;SDS011;10526;50.850;12.928;2024-02-23T22:26:10;14.05;;;4.97;;
20729;SDS011;10526;50.850;12.928;2024-02-23T22:30:32;16.38;;;5.13;;
20729;SDS011;10526;50.850;12.928;2024-02-23T22:34:54;15.88;;;4.85;;
20729;SDS011;10526;50.850;12.928;2024-02-23T22:39:16;12.70;;;4.45;;
20729;SDS011;10526;50.850;12.928;2024-02-23T22:43:39;5.85;;;2.50;;
20729;SDS011;10526;50.850;12.928;2024-02-23T22:48:01;13.30;;;3.20;;
20729;SDS011;10526;50.850;12.928;2024-02-23T22:52:23;5.18;;;2.60;;
20729;SDS011;10526;50.850;12.928;2024-02-23T22:56:45;7.95;;;2.63;;
20729;SDS011;10526;50.850;12.928;2024-02-23T23:01:07;9.50;;;3.22;;
20729;SDS011;10526;50.850;12.928;2024-02-23T23:05:32;5.78;;;2.58;;
20729;SDS011;10526;50.850;12.928;2024-02-23T23:09:54;6.93;;;2.85;;
20729;SDS011;10526;50.850;12.928;2024-02-23T23:14:16;11.30;;;3.67;;
20729;SDS011;10526;50.850;12.928;2024-02-23T23:18:38;10.15;;;3.03;;
20729;SDS011;10526;50.850;12.928;2024-02-23T23:23:00;7.72;;;2.75;;
20729;SDS011;10526;50.850;12.928;2024-02-23T23:27:22;8.93;;;3.88;;
20729;SDS011;10526;50.850;12.928;2024-02-23T23:31:44;9.25;;;3.45;;
20729;SDS011;10526;50.850;12.928;2024-02-23T23:36:06;10.98;;;4.10;;
20729;SDS011;10526;50.850;12.928;2024-02-23T23:40:28;9.70;;;3.88;;
20729;SDS011;10526;50.850;12.928;2024-02-23T23:44:50;10.48;;;3.60;;
20729;SDS011;10526;50.850;12.928;2024-02-23T23:49:12;13.00;;;4.07;;
20729;SDS011;10526;50.850;12.928;2024-02-23T23:53:34;12.90;;;3.88;;
20729;SDS011;10526;50.850;12.928;2024-02-23T23:57:55;6.45;;;3.03;;
